Hauptseite
METAR-TAF:

METAR-TAF

Flughäfen :

Altenstadt, Deutschland

Heeresflugplatz Altenstadt

Breite: 47-50N, Länge: 010-52E, Höhe: 739 m

Beobachtung

Neuester Wetterbericht von vor 34 Minuten, um 01:20 UTC
Wind 4 kt aus West/Südwest
Temperatur 8°C
Luftfeuchtigkeit 87%
Luftdruck 1026 hPa

METAR: ETHA 170120Z AUTO 24004KT //// // ////// 08/06 Q1026 ///

Zeit: 03:54 (01:54 UTC)

Prognose

Neuester Wetterbericht von vor 10 Stunden und 1 Minuten, um 15:53 UTC
Gültige Prognose vom 16 um 14 UTC bis 16 um 23 UTC
Wind 5 kt aus Ost/Nordost
Sichtweite: 1720 m
Himmel klar

TAF: ETHA 161553Z 1614/1623 06005KT 9999 NSW SKC CANCEL 1720

Wetterbeobachtungen und Prognosen von mehr als 4000 Flughäfen (METAR und TAF Bericht).

Die verfügbaren Stationen werden durch gelbe und rote Markierungen auf der Karte dargestellt.

Führen Sie die Maus auf sie, um den Namen der Station zu sehen.

Darauf klicken, um die Beobachtung von Wetterbeobachtungen und Prognosen zu sehen.

Um die Karte zu ändern : klicken Sie auf den grünen Tasten mit einem schwarzen Kreuz Zum Vergrößern, auf den grünen Button mit einem Gedankenstrich zu verkleinern, oder auf die grünen Pfeile für benachbarte Karten.


METAR-TAF: